sensor_id;sensor_type;location;lat;lon;timestamp;pressure;altitude;pressure_sealevel;temperature;humidity
54900;BME280;40801;41.924;25.562;2022-10-12T00:01:40;100139.94;;;16.49;60.98
54900;BME280;40801;41.924;25.562;2022-10-12T00:04:06;100143.47;;;16.40;60.42
54900;BME280;40801;41.924;25.562;2022-10-12T00:06:31;100138.00;;;16.49;59.28
54900;BME280;40801;41.924;25.562;2022-10-12T00:08:56;100139.63;;;16.41;60.50
54900;BME280;40801;41.924;25.562;2022-10-12T00:11:22;100138.53;;;16.34;60.76
54900;BME280;40801;41.924;25.562;2022-10-12T00:13:48;100137.28;;;16.23;62.12
54900;BME280;40801;41.924;25.562;2022-10-12T00:16:14;100132.34;;;16.07;62.96
54900;BME280;40801;41.924;25.562;2022-10-12T00:18:40;100132.47;;;16.11;62.65
54900;BME280;40801;41.924;25.562;2022-10-12T00:21:09;100130.72;;;16.15;61.40
54900;BME280;40801;41.924;25.562;2022-10-12T00:23:35;100135.50;;;16.18;62.08
54900;BME280;40801;41.924;25.562;2022-10-12T00:26:08;100125.41;;;16.19;61.22
54900;BME280;40801;41.924;25.562;2022-10-12T00:28:34;100125.91;;;16.21;61.94
54900;BME280;40801;41.924;25.562;2022-10-12T00:31:00;100128.63;;;16.21;60.78
54900;BME280;40801;41.924;25.562;2022-10-12T00:33:28;100127.19;;;16.15;62.34
54900;BME280;40801;41.924;25.562;2022-10-12T00:35:54;100128.31;;;16.14;62.63
54900;BME280;40801;41.924;25.562;2022-10-12T00:38:20;100133.59;;;16.10;62.52
54900;BME280;40801;41.924;25.562;2022-10-12T00:40:45;100127.50;;;16.13;62.01
54900;BME280;40801;41.924;25.562;2022-10-12T00:48:39;100128.81;;;16.07;62.25
54900;BME280;40801;41.924;25.562;2022-10-12T00:51:05;100130.38;;;16.17;62.03
54900;BME280;40801;41.924;25.562;2022-10-12T00:53:38;100131.50;;;16.16;62.49
54900;BME280;40801;41.924;25.562;2022-10-12T00:56:05;100139.66;;;16.16;62.64
54900;BME280;40801;41.924;25.562;2022-10-12T00:58:32;100143.06;;;16.04;62.51
54900;BME280;40801;41.924;25.562;2022-10-12T01:01:01;100140.97;;;16.09;62.22
54900;BME280;40801;41.924;25.562;2022-10-12T01:03:27;100135.69;;;16.13;62.14
54900;BME280;40801;41.924;25.562;2022-10-12T01:05:53;100132.81;;;16.09;61.92
54900;BME280;40801;41.924;25.562;2022-10-12T01:08:18;100129.28;;;16.09;61.79
54900;BME280;40801;41.924;25.562;2022-10-12T01:10:44;100142.72;;;16.14;61.60
54900;BME280;40801;41.924;25.562;2022-10-12T01:13:09;100137.75;;;16.16;61.34
54900;BME280;40801;41.924;25.562;2022-10-12T01:15:41;100128.97;;;16.19;61.34
54900;BME280;40801;41.924;25.562;2022-10-12T01:18:15;100140.16;;;16.18;61.70
54900;BME280;40801;41.924;25.562;2022-10-12T01:20:56;100140.81;;;16.06;61.81
54900;BME280;40801;41.924;25.562;2022-10-12T01:31:52;100144.81;;;16.08;61.72
54900;BME280;40801;41.924;25.562;2022-10-12T01:34:25;100146.09;;;16.11;61.93
54900;BME280;40801;41.924;25.562;2022-10-12T01:36:56;100143.06;;;16.04;61.74
54900;BME280;40801;41.924;25.562;2022-10-12T01:39:36;100147.06;;;16.06;61.66
54900;BME280;40801;41.924;25.562;2022-10-12T01:42:06;100155.06;;;16.11;61.35
54900;BME280;40801;41.924;25.562;2022-10-12T01:44:33;100148.34;;;16.00;61.90
54900;BME280;40801;41.924;25.562;2022-10-12T01:46:59;100157.47;;;16.04;62.01
54900;BME280;40801;41.924;25.562;2022-10-12T01:49:29;100154.09;;;16.07;61.65
54900;BME280;40801;41.924;25.562;2022-10-12T01:57:23;100153.94;;;15.87;62.17
54900;BME280;40801;41.924;25.562;2022-10-12T02:00:08;100159.88;;;15.89;61.79
54900;BME280;40801;41.924;25.562;2022-10-12T02:10:13;100171.41;;;15.77;62.80
54900;BME280;40801;41.924;25.562;2022-10-12T02:12:41;100167.22;;;15.79;62.42
54900;BME280;40801;41.924;25.562;2022-10-12T02:15:07;100164.34;;;15.76;62.60
54900;BME280;40801;41.924;25.562;2022-10-12T02:17:34;100163.72;;;15.70;63.06
54900;BME280;40801;41.924;25.562;2022-10-12T02:20:00;100165.31;;;15.71;62.82
54900;BME280;40801;41.924;25.562;2022-10-12T02:22:28;100168.03;;;15.63;63.20
54900;BME280;40801;41.924;25.562;2022-10-12T02:24:58;100167.66;;;15.56;63.34
54900;BME280;40801;41.924;25.562;2022-10-12T02:27:25;100171.19;;;15.56;62.97
54900;BME280;40801;41.924;25.562;2022-10-12T02:29:51;100166.88;;;15.55;63.18
54900;BME280;40801;41.924;25.562;2022-10-12T02:32:19;100171.66;;;15.49;63.08
54900;BME280;40801;41.924;25.562;2022-10-12T02:39:49;100168.41;;;15.30;64.32
54900;BME280;40801;41.924;25.562;2022-10-12T02:42:17;100169.06;;;15.27;64.32
54900;BME280;40801;41.924;25.562;2022-10-12T02:44:44;100169.38;;;15.26;64.04
54900;BME280;40801;41.924;25.562;2022-10-12T02:47:10;100164.25;;;15.24;64.10
54900;BME280;40801;41.924;25.562;2022-10-12T02:49:36;100175.91;;;15.16;64.37
54900;BME280;40801;41.924;25.562;2022-10-12T02:52:03;100173.66;;;15.09;64.88
54900;BME280;40801;41.924;25.562;2022-10-12T02:54:29;100179.09;;;15.09;64.82
54900;BME280;40801;41.924;25.562;2022-10-12T02:56:55;100183.91;;;15.12;63.99
54900;BME280;40801;41.924;25.562;2022-10-12T02:59:20;100186.78;;;15.16;64.24
54900;BME280;40801;41.924;25.562;2022-10-12T03:01:46;100188.06;;;15.18;64.76
54900;BME280;40801;41.924;25.562;2022-10-12T03:04:11;100183.25;;;15.15;65.03
54900;BME280;40801;41.924;25.562;2022-10-12T03:06:36;100190.44;;;15.11;65.27
54900;BME280;40801;41.924;25.562;2022-10-12T03:09:02;100192.22;;;15.16;64.32
54900;BME280;40801;41.924;25.562;2022-10-12T03:11:29;100187.88;;;15.06;65.48
54900;BME280;40801;41.924;25.562;2022-10-12T03:13:54;100190.28;;;15.08;64.67
54900;BME280;40801;41.924;25.562;2022-10-12T03:16:20;100187.91;;;15.15;62.51
54900;BME280;40801;41.924;25.562;2022-10-12T03:18:45;100193.19;;;15.20;63.44
54900;BME280;40801;41.924;25.562;2022-10-12T03:21:11;100189.34;;;15.12;64.37
54900;BME280;40801;41.924;25.562;2022-10-12T03:23:36;100189.81;;;15.14;63.69
54900;BME280;40801;41.924;25.562;2022-10-12T03:26:02;100186.63;;;15.12;64.52
54900;BME280;40801;41.924;25.562;2022-10-12T03:28:28;100188.47;;;15.03;65.18
54900;BME280;40801;41.924;25.562;2022-10-12T03:30:53;100190.06;;;14.96;65.70
54900;BME280;40801;41.924;25.562;2022-10-12T03:33:18;100189.88;;;14.83;66.14
54900;BME280;40801;41.924;25.562;2022-10-12T03:35:44;100188.09;;;14.79;65.84
54900;BME280;40801;41.924;25.562;2022-10-12T03:38:09;100188.88;;;14.79;65.75
54900;BME280;40801;41.924;25.562;2022-10-12T03:40:34;100193.53;;;14.79;64.46
54900;BME280;40801;41.924;25.562;2022-10-12T03:43:00;100198.25;;;14.73;65.71
54900;BME280;40801;41.924;25.562;2022-10-12T03:45:25;100195.19;;;14.66;65.89
54900;BME280;40801;41.924;25.562;2022-10-12T03:47:51;100196.44;;;14.60;66.29
54900;BME280;40801;41.924;25.562;2022-10-12T03:50:16;100199.00;;;14.56;66.24
54900;BME280;40801;41.924;25.562;2022-10-12T03:52:41;100199.00;;;14.56;66.26
54900;BME280;40801;41.924;25.562;2022-10-12T03:55:07;100201.84;;;14.51;66.77
54900;BME280;40801;41.924;25.562;2022-10-12T03:57:32;100198.00;;;14.52;66.36
54900;BME280;40801;41.924;25.562;2022-10-12T03:59:57;100204.06;;;14.49;66.70
54900;BME280;40801;41.924;25.562;2022-10-12T04:02:22;100204.88;;;14.50;66.82
54900;BME280;40801;41.924;25.562;2022-10-12T04:04:48;100202.50;;;14.35;67.38
54900;BME280;40801;41.924;25.562;2022-10-12T04:07:13;100206.09;;;14.44;66.74
54900;BME280;40801;41.924;25.562;2022-10-12T04:09:38;100207.28;;;14.38;67.41
54900;BME280;40801;41.924;25.562;2022-10-12T04:12:04;100198.66;;;14.36;67.50
54900;BME280;40801;41.924;25.562;2022-10-12T04:14:29;100202.19;;;14.36;67.48
54900;BME280;40801;41.924;25.562;2022-10-12T04:16:54;100199.47;;;14.36;67.36
54900;BME280;40801;41.924;25.562;2022-10-12T04:19:20;100209.53;;;14.36;67.28
54900;BME280;40801;41.924;25.562;2022-10-12T04:21:45;100203.59;;;14.34;67.23
54900;BME280;40801;41.924;25.562;2022-10-12T04:24:10;100204.72;;;14.33;67.65
54900;BME280;40801;41.924;25.562;2022-10-12T04:26:35;100203.25;;;14.26;67.72
54900;BME280;40801;41.924;25.562;2022-10-12T04:29:01;100199.09;;;14.29;67.19
54900;BME280;40801;41.924;25.562;2022-10-12T04:31:26;100202.13;;;14.27;67.30
54900;BME280;40801;41.924;25.562;2022-10-12T04:33:51;100194.66;;;14.33;67.18
54900;BME280;40801;41.924;25.562;2022-10-12T04:36:20;100197.13;;;14.43;66.49
54900;BME280;40801;41.924;25.562;2022-10-12T04:38:46;100195.75;;;14.46;66.78
54900;BME280;40801;41.924;25.562;2022-10-12T04:41:11;100197.94;;;14.44;66.80
54900;BME280;40801;41.924;25.562;2022-10-12T04:43:36;100198.75;;;14.44;66.85
54900;BME280;40801;41.924;25.562;2022-10-12T04:46:01;100201.97;;;14.46;66.86
54900;BME280;40801;41.924;25.562;2022-10-12T04:48:27;100203.44;;;14.52;66.79
54900;BME280;40801;41.924;25.562;2022-10-12T04:50:53;100201.88;;;14.60;66.41
54900;BME280;40801;41.924;25.562;2022-10-12T04:53:18;100205.91;;;14.71;66.17
54900;BME280;40801;41.924;25.562;2022-10-12T04:55:43;100215.25;;;14.79;65.74
54900;BME280;40801;41.924;25.562;2022-10-12T04:58:08;100208.38;;;14.81;65.66
54900;BME280;40801;41.924;25.562;2022-10-12T05:00:34;100215.28;;;14.87;65.69
54900;BME280;40801;41.924;25.562;2022-10-12T05:02:59;100210.97;;;14.86;65.28
54900;BME280;40801;41.924;25.562;2022-10-12T05:05:24;100226.94;;;14.88;65.69
54900;BME280;40801;41.924;25.562;2022-10-12T05:07:50;100233.03;;;14.94;65.52
54900;BME280;40801;41.924;25.562;2022-10-12T05:10:15;100229.84;;;15.00;65.03
54900;BME280;40801;41.924;25.562;2022-10-12T05:12:41;100237.09;;;15.05;65.08
54900;BME280;40801;41.924;25.562;2022-10-12T05:15:07;100235.69;;;15.16;64.96
54900;BME280;40801;41.924;25.562;2022-10-12T05:17:32;100235.06;;;15.19;65.04
54900;BME280;40801;41.924;25.562;2022-10-12T05:19:58;100240.88;;;15.35;64.12
54900;BME280;40801;41.924;25.562;2022-10-12T05:22:23;100244.25;;;15.40;64.22
54900;BME280;40801;41.924;25.562;2022-10-12T05:24:48;100250.19;;;15.51;63.72
54900;BME280;40801;41.924;25.562;2022-10-12T05:27:13;100244.97;;;15.63;63.44
54900;BME280;40801;41.924;25.562;2022-10-12T05:29:39;100245.94;;;15.76;62.69
54900;BME280;40801;41.924;25.562;2022-10-12T05:32:04;100249.16;;;15.78;63.01
54900;BME280;40801;41.924;25.562;2022-10-12T05:34:29;100247.91;;;15.93;62.36
54900;BME280;40801;41.924;25.562;2022-10-12T05:36:54;100247.91;;;15.93;63.00
54900;BME280;40801;41.924;25.562;2022-10-12T05:39:20;100257.34;;;16.04;62.28
54900;BME280;40801;41.924;25.562;2022-10-12T05:41:45;100255.91;;;16.06;62.29
54900;BME280;40801;41.924;25.562;2022-10-12T05:44:11;100256.84;;;16.10;62.13
54900;BME280;40801;41.924;25.562;2022-10-12T05:46:36;100264.53;;;16.17;61.93
54900;BME280;40801;41.924;25.562;2022-10-12T05:49:02;100271.59;;;16.27;61.93
54900;BME280;40801;41.924;25.562;2022-10-12T05:51:27;100273.19;;;16.36;61.38
54900;BME280;40801;41.924;25.562;2022-10-12T05:53:52;100271.72;;;16.39;60.93
54900;BME280;40801;41.924;25.562;2022-10-12T05:56:17;100273.31;;;16.57;60.23
54900;BME280;40801;41.924;25.562;2022-10-12T05:58:43;100277.66;;;16.32;60.89
54900;BME280;40801;41.924;25.562;2022-10-12T06:01:09;100272.69;;;16.43;60.46
54900;BME280;40801;41.924;25.562;2022-10-12T06:03:35;100273.63;;;16.64;60.24
54900;BME280;40801;41.924;25.562;2022-10-12T06:06:01;100271.72;;;16.65;59.96
54900;BME280;40801;41.924;25.562;2022-10-12T06:08:27;100274.13;;;16.84;59.40
54900;BME280;40801;41.924;25.562;2022-10-12T06:10:53;100272.94;;;16.93;59.18
54900;BME280;40801;41.924;25.562;2022-10-12T06:13:18;100278.28;;;16.81;59.68
54900;BME280;40801;41.924;25.562;2022-10-12T06:15:44;100284.44;;;17.16;58.78
54900;BME280;40801;41.924;25.562;2022-10-12T06:18:10;100288.09;;;17.20;58.71
54900;BME280;40801;41.924;25.562;2022-10-12T06:20:35;100289.00;;;17.33;57.95
54900;BME280;40801;41.924;25.562;2022-10-12T06:23:00;100289.88;;;17.54;57.43
54900;BME280;40801;41.924;25.562;2022-10-12T06:25:26;100296.13;;;17.55;57.46
54900;BME280;40801;41.924;25.562;2022-10-12T06:27:51;100296.25;;;17.67;56.47
54900;BME280;40801;41.924;25.562;2022-10-12T06:30:16;100297.63;;;17.44;57.38
54900;BME280;40801;41.924;25.562;2022-10-12T06:32:41;100299.16;;;17.53;57.33
54900;BME280;40801;41.924;25.562;2022-10-12T06:35:07;100300.88;;;17.67;56.75
54900;BME280;40801;41.924;25.562;2022-10-12T06:37:32;100300.53;;;17.77;56.50
54900;BME280;40801;41.924;25.562;2022-10-12T06:39:58;100296.41;;;17.91;56.57
54900;BME280;40801;41.924;25.562;2022-10-12T06:42:23;100302.75;;;18.04;55.97
54900;BME280;40801;41.924;25.562;2022-10-12T06:44:48;100302.03;;;18.37;55.74
54900;BME280;40801;41.924;25.562;2022-10-12T06:47:14;100301.91;;;18.33;55.53
54900;BME280;40801;41.924;25.562;2022-10-12T06:49:39;100301.44;;;18.52;54.76
54900;BME280;40801;41.924;25.562;2022-10-12T06:52:06;100302.88;;;18.70;54.80
54900;BME280;40801;41.924;25.562;2022-10-12T06:54:32;100301.41;;;18.73;53.99
54900;BME280;40801;41.924;25.562;2022-10-12T06:56:57;100309.34;;;18.99;54.04
54900;BME280;40801;41.924;25.562;2022-10-12T06:59:22;100307.28;;;19.08;54.16
54900;BME280;40801;41.924;25.562;2022-10-12T07:01:48;100311.66;;;19.09;53.55
54900;BME280;40801;41.924;25.562;2022-10-12T07:04:14;100305.16;;;19.26;53.22
54900;BME280;40801;41.924;25.562;2022-10-12T07:06:39;100308.88;;;19.54;52.43
54900;BME280;40801;41.924;25.562;2022-10-12T07:09:04;100312.50;;;19.58;51.92
54900;BME280;40801;41.924;25.562;2022-10-12T07:11:29;100311.38;;;19.84;50.80
54900;BME280;40801;41.924;25.562;2022-10-12T07:13:56;100310.63;;;20.11;51.42
54900;BME280;40801;41.924;25.562;2022-10-12T07:16:21;100310.56;;;20.48;51.36
54900;BME280;40801;41.924;25.562;2022-10-12T07:18:46;100311.50;;;20.67;48.88
54900;BME280;40801;41.924;25.562;2022-10-12T07:21:11;100309.91;;;20.66;48.89
54900;BME280;40801;41.924;25.562;2022-10-12T07:23:37;100316.28;;;20.70;49.03
54900;BME280;40801;41.924;25.562;2022-10-12T07:26:02;100315.09;;;20.84;49.53
54900;BME280;40801;41.924;25.562;2022-10-12T07:28:28;100308.81;;;20.83;49.69
54900;BME280;40801;41.924;25.562;2022-10-12T07:30:53;100313.59;;;20.86;48.87
54900;BME280;40801;41.924;25.562;2022-10-12T07:33:18;100311.59;;;20.71;48.90
54900;BME280;40801;41.924;25.562;2022-10-12T07:35:51;100309.28;;;21.01;48.10
54900;BME280;40801;41.924;25.562;2022-10-12T07:38:16;100309.16;;;21.25;48.45
54900;BME280;40801;41.924;25.562;2022-10-12T07:40:42;100310.56;;;21.35;47.07
54900;BME280;40801;41.924;25.562;2022-10-12T07:43:07;100313.97;;;21.00;48.00
54900;BME280;40801;41.924;25.562;2022-10-12T07:45:32;100313.47;;;21.11;48.35
54900;BME280;40801;41.924;25.562;2022-10-12T07:47:57;100318.66;;;21.00;48.13
54900;BME280;40801;41.924;25.562;2022-10-12T07:50:23;100317.50;;;20.85;47.98
54900;BME280;40801;41.924;25.562;2022-10-12T07:52:49;100314.97;;;20.52;48.67
54900;BME280;40801;41.924;25.562;2022-10-12T07:55:15;100321.59;;;20.79;47.95
54900;BME280;40801;41.924;25.562;2022-10-12T07:57:40;100324.06;;;20.68;48.24
54900;BME280;40801;41.924;25.562;2022-10-12T08:00:05;100326.47;;;20.70;48.01
54900;BME280;40801;41.924;25.562;2022-10-12T08:02:31;100313.50;;;20.83;47.90
54900;BME280;40801;41.924;25.562;2022-10-12T08:04:56;100318.03;;;20.63;47.74
54900;BME280;40801;41.924;25.562;2022-10-12T08:07:21;100310.28;;;20.81;47.78
54900;BME280;40801;41.924;25.562;2022-10-12T08:09:47;100316.28;;;20.42;48.48
54900;BME280;40801;41.924;25.562;2022-10-12T08:12:13;100312.66;;;20.66;48.21
54900;BME280;40801;41.924;25.562;2022-10-12T08:14:38;100312.41;;;20.71;48.26
54900;BME280;40801;41.924;25.562;2022-10-12T08:17:04;100308.47;;;20.57;48.43
54900;BME280;40801;41.924;25.562;2022-10-12T08:19:30;100310.66;;;20.51;49.35
54900;BME280;40801;41.924;25.562;2022-10-12T08:21:55;100313.50;;;20.55;48.70
54900;BME280;40801;41.924;25.562;2022-10-12T08:24:21;100318.59;;;20.68;48.82
54900;BME280;40801;41.924;25.562;2022-10-12T08:26:46;100309.22;;;20.69;48.00
54900;BME280;40801;41.924;25.562;2022-10-12T08:29:11;100313.09;;;20.68;48.17
54900;BME280;40801;41.924;25.562;2022-10-12T08:31:36;100312.84;;;20.73;47.26
54900;BME280;40801;41.924;25.562;2022-10-12T08:34:03;100309.44;;;20.92;47.27
54900;BME280;40801;41.924;25.562;2022-10-12T08:36:28;100310.59;;;21.07;46.53
54900;BME280;40801;41.924;25.562;2022-10-12T08:38:53;100307.94;;;20.95;46.21
54900;BME280;40801;41.924;25.562;2022-10-12T08:46:58;100306.19;;;21.65;45.59
54900;BME280;40801;41.924;25.562;2022-10-12T08:49:25;100305.97;;;21.90;45.58
54900;BME280;40801;41.924;25.562;2022-10-12T08:51:53;100303.41;;;22.32;45.20
54900;BME280;40801;41.924;25.562;2022-10-12T08:54:20;100300.28;;;22.34;44.50
54900;BME280;40801;41.924;25.562;2022-10-12T08:56:46;100299.09;;;22.73;45.24
54900;BME280;40801;41.924;25.562;2022-10-12T08:59:12;100303.69;;;22.66;43.70
54900;BME280;40801;41.924;25.562;2022-10-12T09:14:10;100299.13;;;22.15;42.60
54900;BME280;40801;41.924;25.562;2022-10-12T09:16:40;100296.16;;;22.63;42.36
54900;BME280;40801;41.924;25.562;2022-10-12T09:19:10;100300.94;;;22.85;40.34
54900;BME280;40801;41.924;25.562;2022-10-12T09:21:37;100298.63;;;23.10;41.56
54900;BME280;40801;41.924;25.562;2022-10-12T09:24:05;100292.44;;;22.94;41.75
54900;BME280;40801;41.924;25.562;2022-10-12T09:26:34;100292.56;;;23.01;43.03
54900;BME280;40801;41.924;25.562;2022-10-12T09:29:00;100295.81;;;23.06;41.67
54900;BME280;40801;41.924;25.562;2022-10-12T09:31:45;100292.25;;;23.06;41.01
54900;BME280;40801;41.924;25.562;2022-10-12T09:34:15;100295.59;;;23.15;41.52
54900;BME280;40801;41.924;25.562;2022-10-12T09:36:41;100295.56;;;23.38;41.95
54900;BME280;40801;41.924;25.562;2022-10-12T09:39:19;100289.56;;;23.32;40.44
54900;BME280;40801;41.924;25.562;2022-10-12T09:41:46;100303.06;;;23.41;40.69
54900;BME280;40801;41.924;25.562;2022-10-12T09:44:15;100287.63;;;23.33;40.29
54900;BME280;40801;41.924;25.562;2022-10-12T09:46:56;100300.81;;;23.46;40.93
54900;BME280;40801;41.924;25.562;2022-10-12T09:52:04;100288.50;;;23.40;40.33
54900;BME280;40801;41.924;25.562;2022-10-12T09:54:29;100287.63;;;23.56;39.54
54900;BME280;40801;41.924;25.562;2022-10-12T09:56:55;100288.31;;;23.75;39.42
54900;BME280;40801;41.924;25.562;2022-10-12T10:04:29;100288.69;;;24.00;38.47
54900;BME280;40801;41.924;25.562;2022-10-12T10:06:54;100276.03;;;24.59;38.40
54900;BME280;40801;41.924;25.562;2022-10-12T10:09:35;100272.69;;;24.80;37.43
54900;BME280;40801;41.924;25.562;2022-10-12T10:12:11;100269.25;;;24.90;37.33
54900;BME280;40801;41.924;25.562;2022-10-12T10:14:37;100264.63;;;24.61;37.09
54900;BME280;40801;41.924;25.562;2022-10-12T10:17:02;100248.94;;;25.60;36.54
54900;BME280;40801;41.924;25.562;2022-10-12T10:19:27;100263.66;;;25.20;35.87
54900;BME280;40801;41.924;25.562;2022-10-12T10:21:53;100252.03;;;25.48;36.10
54900;BME280;40801;41.924;25.562;2022-10-12T10:29:51;100250.19;;;26.43;33.26
54900;BME280;40801;41.924;25.562;2022-10-12T10:34:48;100236.38;;;26.57;33.20
54900;BME280;40801;41.924;25.562;2022-10-12T10:46:32;100224.03;;;29.70;28.92
54900;BME280;40801;41.924;25.562;2022-10-12T11:00:44;100208.47;;;28.35;29.15
